sensor_id;sensor_type;location;lat;lon;timestamp;pressure;altitude;pressure_sealevel;temperature;humidity
20860;BME280;10590;48.154;11.514;2023-06-22T00:01:50;95751.50;;;21.35;65.04
20860;BME280;10590;48.154;11.514;2023-06-22T00:07:12;95754.69;;;21.58;64.67
20860;BME280;10590;48.154;11.514;2023-06-22T00:12:35;95749.59;;;21.43;64.62
20860;BME280;10590;48.154;11.514;2023-06-22T00:17:58;95753.84;;;21.40;65.10
20860;BME280;10590;48.154;11.514;2023-06-22T00:23:20;95746.03;;;21.28;66.03
20860;BME280;10590;48.154;11.514;2023-06-22T00:28:43;95743.41;;;20.80;67.51
20860;BME280;10590;48.154;11.514;2023-06-22T00:34:05;95749.91;;;21.27;65.17
20860;BME280;10590;48.154;11.514;2023-06-22T00:39:27;95749.81;;;21.13;66.31
20860;BME280;10590;48.154;11.514;2023-06-22T00:44:50;95748.78;;;20.77;66.97
20860;BME280;10590;48.154;11.514;2023-06-22T00:50:17;95746.72;;;20.56;67.86
20860;BME280;10590;48.154;11.514;2023-06-22T00:55:43;95745.78;;;20.85;66.65
20860;BME280;10590;48.154;11.514;2023-06-22T01:01:08;95736.75;;;20.71;67.13
20860;BME280;10590;48.154;11.514;2023-06-22T01:06:35;95741.16;;;20.89;66.15
20860;BME280;10590;48.154;11.514;2023-06-22T01:12:04;95729.78;;;20.73;66.93
20860;BME280;10590;48.154;11.514;2023-06-22T01:17:29;95707.13;;;21.03;65.77
20860;BME280;10590;48.154;11.514;2023-06-22T01:23:02;95712.31;;;20.67;66.86
20860;BME280;10590;48.154;11.514;2023-06-22T01:28:43;95707.47;;;20.39;67.90
20860;BME280;10590;48.154;11.514;2023-06-22T01:34:08;95706.66;;;20.39;67.65
20860;BME280;10590;48.154;11.514;2023-06-22T01:39:30;95698.25;;;20.47;67.54
20860;BME280;10590;48.154;11.514;2023-06-22T01:44:55;95699.19;;;20.21;68.39
20860;BME280;10590;48.154;11.514;2023-06-22T01:50:20;95699.22;;;20.28;68.37
20860;BME280;10590;48.154;11.514;2023-06-22T01:55:42;95702.72;;;20.29;67.98
20860;BME280;10590;48.154;11.514;2023-06-22T02:01:10;95692.06;;;20.50;67.56
20860;BME280;10590;48.154;11.514;2023-06-22T02:06:37;95702.91;;;20.50;67.50
20860;BME280;10590;48.154;11.514;2023-06-22T02:12:00;95700.44;;;20.34;67.84
20860;BME280;10590;48.154;11.514;2023-06-22T02:17:26;95715.94;;;20.34;68.31
20860;BME280;10590;48.154;11.514;2023-06-22T02:22:48;95711.91;;;20.17;68.96
20860;BME280;10590;48.154;11.514;2023-06-22T02:28:09;95705.38;;;20.22;68.78
20860;BME280;10590;48.154;11.514;2023-06-22T02:33:33;95719.25;;;20.13;69.07
20860;BME280;10590;48.154;11.514;2023-06-22T02:38:55;95728.78;;;20.00;69.62
20860;BME280;10590;48.154;11.514;2023-06-22T02:44:20;95735.25;;;19.92;69.77
20860;BME280;10590;48.154;11.514;2023-06-22T02:49:43;95747.06;;;19.73;70.55
20860;BME280;10590;48.154;11.514;2023-06-22T02:55:07;95732.69;;;19.05;73.46
20860;BME280;10590;48.154;11.514;2023-06-22T03:00:29;95728.63;;;19.19;73.48
20860;BME280;10590;48.154;11.514;2023-06-22T03:05:52;95720.97;;;19.24;73.13
20860;BME280;10590;48.154;11.514;2023-06-22T03:11:14;95715.25;;;19.03;73.97
20860;BME280;10590;48.154;11.514;2023-06-22T03:16:36;95723.72;;;19.61;71.79
20860;BME280;10590;48.154;11.514;2023-06-22T03:22:00;95713.03;;;19.72;71.31
20860;BME280;10590;48.154;11.514;2023-06-22T03:27:22;95706.75;;;19.31;73.11
20860;BME280;10590;48.154;11.514;2023-06-22T03:32:43;95708.78;;;19.41;72.82
20860;BME280;10590;48.154;11.514;2023-06-22T03:38:08;95718.25;;;19.54;71.91
20860;BME280;10590;48.154;11.514;2023-06-22T03:43:30;95726.84;;;19.63;71.44
20860;BME280;10590;48.154;11.514;2023-06-22T03:48:52;95728.53;;;19.75;71.10
20860;BME280;10590;48.154;11.514;2023-06-22T03:54:15;95720.09;;;19.84;71.23
20860;BME280;10590;48.154;11.514;2023-06-22T03:59:37;95724.13;;;19.97;70.74
20860;BME280;10590;48.154;11.514;2023-06-22T04:04:59;95729.34;;;19.79;71.75
20860;BME280;10590;48.154;11.514;2023-06-22T04:10:22;95740.41;;;20.00;70.89
20860;BME280;10590;48.154;11.514;2023-06-22T04:15:44;95742.00;;;20.05;70.75
20860;BME280;10590;48.154;11.514;2023-06-22T04:21:06;95738.63;;;20.19;70.86
20860;BME280;10590;48.154;11.514;2023-06-22T04:26:29;95728.03;;;20.44;69.54
20860;BME280;10590;48.154;11.514;2023-06-22T04:31:51;95729.31;;;20.16;70.43
20860;BME280;10590;48.154;11.514;2023-06-22T04:37:13;95729.53;;;19.97;71.59
20860;BME280;10590;48.154;11.514;2023-06-22T04:42:38;95726.28;;;20.21;70.72
20860;BME280;10590;48.154;11.514;2023-06-22T04:48:00;95712.66;;;19.73;72.63
20860;BME280;10590;48.154;11.514;2023-06-22T04:53:22;95722.13;;;19.94;71.45
20860;BME280;10590;48.154;11.514;2023-06-22T04:58:47;95715.34;;;20.55;69.75
20860;BME280;10590;48.154;11.514;2023-06-22T05:04:09;95712.50;;;20.95;67.84
20860;BME280;10590;48.154;11.514;2023-06-22T05:09:31;95708.03;;;21.28;66.62
20860;BME280;10590;48.154;11.514;2023-06-22T05:14:55;95708.53;;;21.58;65.39
20860;BME280;10590;48.154;11.514;2023-06-22T05:20:17;95707.16;;;21.10;67.20
20860;BME280;10590;48.154;11.514;2023-06-22T05:25:39;95707.19;;;21.17;67.37
20860;BME280;10590;48.154;11.514;2023-06-22T05:31:03;95700.53;;;22.08;63.78
20860;BME280;10590;48.154;11.514;2023-06-22T05:36:27;95708.09;;;21.46;67.25
20860;BME280;10590;48.154;11.514;2023-06-22T05:41:48;95696.16;;;21.68;66.49
20860;BME280;10590;48.154;11.514;2023-06-22T05:47:12;95699.97;;;21.49;66.85
20860;BME280;10590;48.154;11.514;2023-06-22T05:52:34;95685.34;;;21.86;65.43
20860;BME280;10590;48.154;11.514;2023-06-22T05:57:56;95690.44;;;22.48;63.71
20860;BME280;10590;48.154;11.514;2023-06-22T06:03:19;95707.53;;;22.34;64.05
20860;BME280;10590;48.154;11.514;2023-06-22T06:08:41;95710.25;;;22.55;62.95
20860;BME280;10590;48.154;11.514;2023-06-22T06:14:03;95699.94;;;23.52;59.81
20860;BME280;10590;48.154;11.514;2023-06-22T06:19:26;95697.13;;;24.36;57.52
20860;BME280;10590;48.154;11.514;2023-06-22T06:24:49;95692.94;;;23.55;60.18
20860;BME280;10590;48.154;11.514;2023-06-22T06:30:14;95683.38;;;23.04;61.63
20860;BME280;10590;48.154;11.514;2023-06-22T06:35:38;95671.28;;;23.92;59.20
20860;BME280;10590;48.154;11.514;2023-06-22T06:41:00;95677.09;;;24.53;56.27
20860;BME280;10590;48.154;11.514;2023-06-22T06:46:22;95683.41;;;25.25;54.58
20860;BME280;10590;48.154;11.514;2023-06-22T06:51:45;95673.97;;;23.19;60.54
20860;BME280;10590;48.154;11.514;2023-06-22T06:57:07;95667.78;;;25.26;55.80
20860;BME280;10590;48.154;11.514;2023-06-22T07:02:31;95678.22;;;24.04;57.68
20860;BME280;10590;48.154;11.514;2023-06-22T07:07:54;95679.28;;;24.69;56.47
20860;BME280;10590;48.154;11.514;2023-06-22T07:13:16;95673.28;;;25.22;55.13
20860;BME280;10590;48.154;11.514;2023-06-22T07:18:39;95686.22;;;25.18;55.03
20860;BME280;10590;48.154;11.514;2023-06-22T07:24:04;95671.81;;;25.14;54.23
20860;BME280;10590;48.154;11.514;2023-06-22T07:29:26;95666.34;;;24.76;56.53
20860;BME280;10590;48.154;11.514;2023-06-22T07:34:48;95662.38;;;27.23;49.46
20860;BME280;10590;48.154;11.514;2023-06-22T07:40:12;95648.69;;;29.64;43.64
20860;BME280;10590;48.154;11.514;2023-06-22T07:45:34;95646.50;;;28.39;46.83
20860;BME280;10590;48.154;11.514;2023-06-22T07:50:56;95644.06;;;28.74;45.06
20860;BME280;10590;48.154;11.514;2023-06-22T07:56:20;95643.84;;;28.52;46.09
20860;BME280;10590;48.154;11.514;2023-06-22T08:01:42;95644.84;;;27.93;47.21
20860;BME280;10590;48.154;11.514;2023-06-22T08:07:05;95640.91;;;28.10;46.05
20860;BME280;10590;48.154;11.514;2023-06-22T08:12:28;95644.88;;;27.17;49.52
20860;BME280;10590;48.154;11.514;2023-06-22T08:17:50;95650.09;;;28.85;44.92
20860;BME280;10590;48.154;11.514;2023-06-22T08:23:13;95636.06;;;32.26;38.38
20860;BME280;10590;48.154;11.514;2023-06-22T08:28:36;95635.84;;;31.81;38.60
20860;BME280;10590;48.154;11.514;2023-06-22T08:33:58;95632.97;;;31.62;38.71
20860;BME280;10590;48.154;11.514;2023-06-22T08:39:20;95628.34;;;29.74;42.54
20860;BME280;10590;48.154;11.514;2023-06-22T08:44:43;95632.06;;;30.43;40.47
20860;BME280;10590;48.154;11.514;2023-06-22T08:50:07;95632.28;;;29.98;41.36
20860;BME280;10590;48.154;11.514;2023-06-22T08:55:29;95628.56;;;30.78;40.74
20860;BME280;10590;48.154;11.514;2023-06-22T09:00:52;95623.41;;;33.11;36.21
20860;BME280;10590;48.154;11.514;2023-06-22T09:06:14;95618.59;;;33.48;34.36
20860;BME280;10590;48.154;11.514;2023-06-22T09:11:37;95622.97;;;34.72;31.93
20860;BME280;10590;48.154;11.514;2023-06-22T09:17:00;95613.09;;;32.75;35.52
20860;BME280;10590;48.154;11.514;2023-06-22T09:22:23;95618.94;;;33.41;34.92
20860;BME280;10590;48.154;11.514;2023-06-22T09:27:49;95620.91;;;33.50;34.01
20860;BME280;10590;48.154;11.514;2023-06-22T09:33:12;95602.28;;;34.35;32.48
20860;BME280;10590;48.154;11.514;2023-06-22T09:38:34;95600.78;;;34.25;32.21
20860;BME280;10590;48.154;11.514;2023-06-22T09:43:56;95608.50;;;33.18;34.88
20860;BME280;10590;48.154;11.514;2023-06-22T09:49:20;95591.75;;;34.15;32.75
20860;BME280;10590;48.154;11.514;2023-06-22T09:54:42;95602.38;;;34.16;33.58
20860;BME280;10590;48.154;11.514;2023-06-22T10:00:04;95585.59;;;31.55;36.31
20860;BME280;10590;48.154;11.514;2023-06-22T10:05:33;95562.97;;;36.22;29.71
20860;BME280;10590;48.154;11.514;2023-06-22T10:10:55;95573.31;;;36.57;29.10
20860;BME280;10590;48.154;11.514;2023-06-22T10:16:17;95568.84;;;35.74;30.32
20860;BME280;10590;48.154;11.514;2023-06-22T10:21:40;95571.63;;;35.30;30.32
20860;BME280;10590;48.154;11.514;2023-06-22T10:27:02;95576.69;;;37.65;27.96
20860;BME280;10590;48.154;11.514;2023-06-22T10:32:24;95572.53;;;38.66;26.21
20860;BME280;10590;48.154;11.514;2023-06-22T10:37:48;95569.34;;;37.99;27.30
20860;BME280;10590;48.154;11.514;2023-06-22T10:43:11;95547.47;;;35.95;30.40
20860;BME280;10590;48.154;11.514;2023-06-22T10:48:33;95543.53;;;38.04;26.76
20860;BME280;10590;48.154;11.514;2023-06-22T10:53:57;95537.59;;;36.96;28.93
20860;BME280;10590;48.154;11.514;2023-06-22T10:59:19;95528.69;;;36.46;30.11
20860;BME280;10590;48.154;11.514;2023-06-22T11:04:42;95530.16;;;32.20;36.90
20860;BME280;10590;48.154;11.514;2023-06-22T11:10:06;95534.16;;;33.11;35.82
20860;BME280;10590;48.154;11.514;2023-06-22T11:15:28;95532.69;;;33.76;35.59
20860;BME280;10590;48.154;11.514;2023-06-22T11:20:50;95523.69;;;34.86;32.94
20860;BME280;10590;48.154;11.514;2023-06-22T11:26:15;95527.72;;;35.43;32.21
20860;BME280;10590;48.154;11.514;2023-06-22T11:31:36;95522.84;;;36.64;30.28
20860;BME280;10590;48.154;11.514;2023-06-22T11:36:58;95514.31;;;36.47;29.73
20860;BME280;10590;48.154;11.514;2023-06-22T11:42:22;95496.50;;;38.87;27.45
20860;BME280;10590;48.154;11.514;2023-06-22T11:47:45;95495.31;;;39.33;26.91
20860;BME280;10590;48.154;11.514;2023-06-22T11:53:07;95490.97;;;39.66;26.66
20860;BME280;10590;48.154;11.514;2023-06-22T11:58:31;95488.66;;;38.97;26.05
20860;BME280;10590;48.154;11.514;2023-06-22T12:03:52;95485.94;;;37.47;28.18
20860;BME280;10590;48.154;11.514;2023-06-22T12:09:14;95481.34;;;36.20;31.24
20860;BME280;10590;48.154;11.514;2023-06-22T12:14:38;95471.00;;;37.18;28.88
20860;BME280;10590;48.154;11.514;2023-06-22T12:20:00;95458.81;;;38.27;27.42
20860;BME280;10590;48.154;11.514;2023-06-22T12:25:22;95443.94;;;38.52;27.15
20860;BME280;10590;48.154;11.514;2023-06-22T12:30:45;95425.56;;;36.69;30.03
20860;BME280;10590;48.154;11.514;2023-06-22T12:36:08;95449.00;;;37.89;27.83
20860;BME280;10590;48.154;11.514;2023-06-22T12:41:30;95446.44;;;36.59;29.37
20860;BME280;10590;48.154;11.514;2023-06-22T12:46:53;95430.44;;;35.03;32.49
20860;BME280;10590;48.154;11.514;2023-06-22T12:52:15;95421.50;;;35.98;31.11
20860;BME280;10590;48.154;11.514;2023-06-22T12:57:37;95413.69;;;34.68;33.48
20860;BME280;10590;48.154;11.514;2023-06-22T13:03:00;95425.03;;;35.29;32.14
20860;BME280;10590;48.154;11.514;2023-06-22T13:08:22;95421.75;;;36.21;31.78
20860;BME280;10590;48.154;11.514;2023-06-22T13:13:45;95428.25;;;37.47;29.82
20860;BME280;10590;48.154;11.514;2023-06-22T13:19:09;95430.97;;;38.33;28.12
20860;BME280;10590;48.154;11.514;2023-06-22T13:24:31;95425.59;;;38.18;28.15
20860;BME280;10590;48.154;11.514;2023-06-22T13:29:53;95410.19;;;36.28;30.10
20860;BME280;10590;48.154;11.514;2023-06-22T13:35:18;95417.38;;;39.52;26.08
20860;BME280;10590;48.154;11.514;2023-06-22T13:40:40;95405.19;;;37.89;27.54
20860;BME280;10590;48.154;11.514;2023-06-22T13:46:02;95417.13;;;39.39;26.47
20860;BME280;10590;48.154;11.514;2023-06-22T13:51:26;95415.13;;;38.07;27.72
20860;BME280;10590;48.154;11.514;2023-06-22T13:56:50;95397.97;;;38.20;27.13
20860;BME280;10590;48.154;11.514;2023-06-22T14:02:12;95394.16;;;37.63;28.80
20860;BME280;10590;48.154;11.514;2023-06-22T14:07:35;95386.38;;;36.99;28.96
20860;BME280;10590;48.154;11.514;2023-06-22T14:12:58;95386.50;;;38.07;27.43
20860;BME280;10590;48.154;11.514;2023-06-22T14:18:20;95374.41;;;37.61;28.13
20860;BME280;10590;48.154;11.514;2023-06-22T14:23:44;95362.13;;;37.96;27.35
20860;BME280;10590;48.154;11.514;2023-06-22T14:29:11;95368.41;;;37.80;27.03
20860;BME280;10590;48.154;11.514;2023-06-22T14:34:33;95357.41;;;37.54;26.73
20860;BME280;10590;48.154;11.514;2023-06-22T14:39:57;95350.78;;;38.11;26.04
20860;BME280;10590;48.154;11.514;2023-06-22T14:45:20;95354.50;;;37.85;24.53
20860;BME280;10590;48.154;11.514;2023-06-22T14:50:42;95350.34;;;38.29;24.70
20860;BME280;10590;48.154;11.514;2023-06-22T14:56:05;95333.66;;;38.57;24.64
20860;BME280;10590;48.154;11.514;2023-06-22T15:01:28;95324.53;;;38.51;23.12
20860;BME280;10590;48.154;11.514;2023-06-22T15:06:50;95312.94;;;37.71;25.38
20860;BME280;10590;48.154;11.514;2023-06-22T15:12:13;95319.69;;;38.29;23.42
20860;BME280;10590;48.154;11.514;2023-06-22T15:17:37;95315.63;;;37.54;23.32
20860;BME280;10590;48.154;11.514;2023-06-22T15:23:03;95315.13;;;35.92;26.55
20860;BME280;10590;48.154;11.514;2023-06-22T15:28:28;95298.84;;;35.04;27.25
20860;BME280;10590;48.154;11.514;2023-06-22T15:33:52;95282.06;;;34.93;27.77
20860;BME280;10590;48.154;11.514;2023-06-22T15:39:15;95276.78;;;35.96;26.05
20860;BME280;10590;48.154;11.514;2023-06-22T15:44:39;95258.63;;;35.14;25.13
20860;BME280;10590;48.154;11.514;2023-06-22T15:50:01;95254.94;;;35.23;26.34
20860;BME280;10590;48.154;11.514;2023-06-22T15:55:23;95252.28;;;34.58;27.85
20860;BME280;10590;48.154;11.514;2023-06-22T16:00:46;95264.25;;;34.05;28.43
20860;BME280;10590;48.154;11.514;2023-06-22T16:06:09;95269.69;;;34.29;28.86
20860;BME280;10590;48.154;11.514;2023-06-22T16:11:33;95269.88;;;33.81;28.86
20860;BME280;10590;48.154;11.514;2023-06-22T16:16:56;95282.56;;;33.49;28.83
20860;BME280;10590;48.154;11.514;2023-06-22T16:22:19;95265.75;;;33.38;28.28
20860;BME280;10590;48.154;11.514;2023-06-22T16:27:46;95248.03;;;33.45;28.65
20860;BME280;10590;48.154;11.514;2023-06-22T16:33:10;95225.69;;;33.34;29.09
20860;BME280;10590;48.154;11.514;2023-06-22T16:38:32;95165.13;;;33.12;29.35
20860;BME280;10590;48.154;11.514;2023-06-22T16:43:54;95105.28;;;32.85;29.38
20860;BME280;10590;48.154;11.514;2023-06-22T16:49:18;95129.69;;;32.39;30.25
20860;BME280;10590;48.154;11.514;2023-06-22T16:54:48;95189.50;;;31.99;30.83
20860;BME280;10590;48.154;11.514;2023-06-22T17:00:11;95245.06;;;31.65;31.91
20860;BME280;10590;48.154;11.514;2023-06-22T17:05:36;95312.53;;;31.05;35.95
20860;BME280;10590;48.154;11.514;2023-06-22T17:10:58;95336.34;;;27.98;51.90
20860;BME280;10590;48.154;11.514;2023-06-22T17:16:22;95347.53;;;24.41;67.86
20860;BME280;10590;48.154;11.514;2023-06-22T17:21:47;95413.13;;;22.34;82.47
20860;BME280;10590;48.154;11.514;2023-06-22T17:27:09;95522.72;;;21.70;89.49
20860;BME280;10590;48.154;11.514;2023-06-22T17:32:33;95452.06;;;20.88;83.43
20860;BME280;10590;48.154;11.514;2023-06-22T17:37:58;95409.03;;;18.76;82.61
20860;BME280;10590;48.154;11.514;2023-06-22T17:43:22;95336.63;;;19.03;79.57
20860;BME280;10590;48.154;11.514;2023-06-22T17:48:47;95349.34;;;18.55;83.08
20860;BME280;10590;48.154;11.514;2023-06-22T17:54:11;95346.66;;;18.55;83.29
20860;BME280;10590;48.154;11.514;2023-06-22T17:59:33;95340.09;;;18.56;84.97
20860;BME280;10590;48.154;11.514;2023-06-22T18:04:56;95378.94;;;18.07;90.31
20860;BME280;10590;48.154;11.514;2023-06-22T18:10:20;95364.44;;;19.00;90.77
20860;BME280;10590;48.154;11.514;2023-06-22T18:15:43;95366.31;;;18.92;88.79
20860;BME280;10590;48.154;11.514;2023-06-22T18:21:07;95419.22;;;18.93;90.19
20860;BME280;10590;48.154;11.514;2023-06-22T18:26:31;95446.81;;;19.09;91.56
20860;BME280;10590;48.154;11.514;2023-06-22T18:31:55;95408.38;;;19.37;89.11
20860;BME280;10590;48.154;11.514;2023-06-22T18:37:17;95363.16;;;19.38;90.93
20860;BME280;10590;48.154;11.514;2023-06-22T18:42:43;95417.53;;;19.19;96.00
20860;BME280;10590;48.154;11.514;2023-06-22T18:48:06;95367.88;;;19.48;94.78
20860;BME280;10590;48.154;11.514;2023-06-22T18:53:28;95333.69;;;19.19;96.76
20860;BME280;10590;48.154;11.514;2023-06-22T18:58:56;95381.59;;;19.18;96.96
20860;BME280;10590;48.154;11.514;2023-06-22T19:04:19;95356.16;;;19.30;94.71
20860;BME280;10590;48.154;11.514;2023-06-22T19:15:41;95378.28;;;18.95;98.66
20860;BME280;10590;48.154;11.514;2023-06-22T19:21:07;95369.69;;;19.30;95.30
20860;BME280;10590;48.154;11.514;2023-06-22T19:26:29;95367.06;;;19.44;95.01
20860;BME280;10590;48.154;11.514;2023-06-22T19:31:54;95410.63;;;19.25;95.97
20860;BME280;10590;48.154;11.514;2023-06-22T19:37:17;95478.00;;;19.00;99.16
20860;BME280;10590;48.154;11.514;2023-06-22T19:42:40;95477.28;;;19.06;100.00
20860;BME280;10590;48.154;11.514;2023-06-22T19:48:23;95500.31;;;19.27;100.00
20860;BME280;10590;48.154;11.514;2023-06-22T19:53:46;95526.13;;;19.21;100.00
20860;BME280;10590;48.154;11.514;2023-06-22T19:59:09;95489.97;;;18.99;100.00
20860;BME280;10590;48.154;11.514;2023-06-22T20:04:33;95461.38;;;18.98;100.00
20860;BME280;10590;48.154;11.514;2023-06-22T20:10:06;95455.13;;;18.90;100.00
20860;BME280;10590;48.154;11.514;2023-06-22T20:15:28;95496.75;;;19.19;100.00
20860;BME280;10590;48.154;11.514;2023-06-22T20:20:55;95442.84;;;19.44;99.70
20860;BME280;10590;48.154;11.514;2023-06-22T20:26:17;95571.81;;;19.29;99.23
20860;BME280;10590;48.154;11.514;2023-06-22T20:31:39;95574.59;;;19.36;98.78
20860;BME280;10590;48.154;11.514;2023-06-22T20:37:03;95565.66;;;19.32;99.30
20860;BME280;10590;48.154;11.514;2023-06-22T20:42:25;95566.50;;;19.40;99.16
20860;BME280;10590;48.154;11.514;2023-06-22T20:47:49;95554.06;;;19.32;98.03
20860;BME280;10590;48.154;11.514;2023-06-22T20:53:12;95554.78;;;19.25;97.80
20860;BME280;10590;48.154;11.514;2023-06-22T20:58:36;95547.41;;;19.22;98.60
20860;BME280;10590;48.154;11.514;2023-06-22T21:03:58;95515.53;;;19.05;99.44
20860;BME280;10590;48.154;11.514;2023-06-22T21:09:25;95505.59;;;19.13;98.59
20860;BME280;10590;48.154;11.514;2023-06-22T21:14:47;95534.16;;;19.10;99.97
20860;BME280;10590;48.154;11.514;2023-06-22T21:20:10;95573.94;;;19.09;98.26
20860;BME280;10590;48.154;11.514;2023-06-22T21:25:34;95562.41;;;19.16;98.95
20860;BME280;10590;48.154;11.514;2023-06-22T21:30:56;95554.16;;;19.05;98.63
20860;BME280;10590;48.154;11.514;2023-06-22T21:36:18;95596.72;;;19.08;99.81
20860;BME280;10590;48.154;11.514;2023-06-22T21:41:41;95609.81;;;19.06;98.98
20860;BME280;10590;48.154;11.514;2023-06-22T21:47:04;95622.94;;;19.04;99.45
20860;BME280;10590;48.154;11.514;2023-06-22T21:52:26;95655.22;;;19.20;98.58
20860;BME280;10590;48.154;11.514;2023-06-22T21:57:51;95656.78;;;19.21;97.23
20860;BME280;10590;48.154;11.514;2023-06-22T22:03:15;95652.28;;;19.36;97.35
20860;BME280;10590;48.154;11.514;2023-06-22T22:08:37;95666.63;;;19.40;96.87
20860;BME280;10590;48.154;11.514;2023-06-22T22:14:00;95655.34;;;19.31;98.02
20860;BME280;10590;48.154;11.514;2023-06-22T22:19:22;95673.78;;;19.22;95.99
20860;BME280;10590;48.154;11.514;2023-06-22T22:24:44;95703.50;;;19.18;94.84
20860;BME280;10590;48.154;11.514;2023-06-22T22:30:12;95687.47;;;19.06;95.64
20860;BME280;10590;48.154;11.514;2023-06-22T22:35:34;95705.84;;;18.93;95.45
20860;BME280;10590;48.154;11.514;2023-06-22T22:40:55;95748.41;;;18.70;92.95
20860;BME280;10590;48.154;11.514;2023-06-22T22:46:19;95765.34;;;18.67;94.97
20860;BME280;10590;48.154;11.514;2023-06-22T22:51:41;95763.78;;;18.66;93.78
20860;BME280;10590;48.154;11.514;2023-06-22T22:57:04;95771.50;;;18.64;93.48
20860;BME280;10590;48.154;11.514;2023-06-22T23:02:27;95794.88;;;18.56;91.78
20860;BME280;10590;48.154;11.514;2023-06-22T23:07:49;95790.94;;;18.50;92.18
20860;BME280;10590;48.154;11.514;2023-06-22T23:13:11;95772.03;;;18.27;92.15
20860;BME280;10590;48.154;11.514;2023-06-22T23:18:35;95768.53;;;18.27;91.09
20860;BME280;10590;48.154;11.514;2023-06-22T23:23:57;95786.44;;;18.35;91.92
20860;BME280;10590;48.154;11.514;2023-06-22T23:29:19;95785.91;;;18.26;89.42
20860;BME280;10590;48.154;11.514;2023-06-22T23:34:42;95792.56;;;18.32;89.98
20860;BME280;10590;48.154;11.514;2023-06-22T23:40:05;95784.91;;;18.14;89.06
20860;BME280;10590;48.154;11.514;2023-06-22T23:45:32;95798.56;;;18.22;88.68
20860;BME280;10590;48.154;11.514;2023-06-22T23:50:58;95804.94;;;18.13;87.35
20860;BME280;10590;48.154;11.514;2023-06-22T23:56:20;95799.34;;;18.03;87.05
